sensor_id;sensor_type;location;lat;lon;timestamp;P1;durP1;ratioP1;P2;durP2;ratioP2
45328;SDS011;31063;48.356;10.896;2022-07-23T00:00:11;9.43;;;8.15;;
45328;SDS011;31063;48.356;10.896;2022-07-23T00:02:37;12.82;;;8.20;;
45328;SDS011;31063;48.356;10.896;2022-07-23T00:05:02;12.68;;;8.70;;
45328;SDS011;31063;48.356;10.896;2022-07-23T00:07:28;14.32;;;8.93;;
45328;SDS011;31063;48.356;10.896;2022-07-23T00:09:54;18.60;;;9.40;;
45328;SDS011;31063;48.356;10.896;2022-07-23T00:12:20;13.55;;;9.05;;
45328;SDS011;31063;48.356;10.896;2022-07-23T00:14:46;10.82;;;8.25;;
45328;SDS011;31063;48.356;10.896;2022-07-23T00:17:11;14.40;;;8.93;;
45328;SDS011;31063;48.356;10.896;2022-07-23T00:19:37;13.35;;;8.48;;
45328;SDS011;31063;48.356;10.896;2022-07-23T00:22:03;10.50;;;8.68;;
45328;SDS011;31063;48.356;10.896;2022-07-23T00:24:28;10.37;;;8.30;;
45328;SDS011;31063;48.356;10.896;2022-07-23T00:26:54;12.20;;;8.20;;
45328;SDS011;31063;48.356;10.896;2022-07-23T00:29:19;9.45;;;8.45;;
45328;SDS011;31063;48.356;10.896;2022-07-23T00:31:45;8.80;;;7.83;;
45328;SDS011;31063;48.356;10.896;2022-07-23T00:34:11;9.03;;;7.53;;
45328;SDS011;31063;48.356;10.896;2022-07-23T00:36:36;7.77;;;6.93;;
45328;SDS011;31063;48.356;10.896;2022-07-23T00:39:02;8.02;;;7.22;;
45328;SDS011;31063;48.356;10.896;2022-07-23T00:41:28;10.60;;;6.95;;
45328;SDS011;31063;48.356;10.896;2022-07-23T00:43:53;9.68;;;6.45;;
45328;SDS011;31063;48.356;10.896;2022-07-23T00:46:22;12.20;;;6.57;;
45328;SDS011;31063;48.356;10.896;2022-07-23T00:48:50;9.95;;;6.63;;
45328;SDS011;31063;48.356;10.896;2022-07-23T00:51:15;9.37;;;7.23;;
45328;SDS011;31063;48.356;10.896;2022-07-23T00:53:42;8.13;;;6.72;;
45328;SDS011;31063;48.356;10.896;2022-07-23T00:56:08;8.30;;;6.90;;
45328;SDS011;31063;48.356;10.896;2022-07-23T00:58:35;7.25;;;6.10;;
45328;SDS011;31063;48.356;10.896;2022-07-23T01:01:03;6.38;;;5.70;;
45328;SDS011;31063;48.356;10.896;2022-07-23T01:03:29;7.40;;;6.68;;
45328;SDS011;31063;48.356;10.896;2022-07-23T01:05:55;8.05;;;6.22;;
45328;SDS011;31063;48.356;10.896;2022-07-23T01:08:21;8.20;;;6.60;;
45328;SDS011;31063;48.356;10.896;2022-07-23T01:10:47;11.83;;;9.40;;
45328;SDS011;31063;48.356;10.896;2022-07-23T01:13:13;12.60;;;9.52;;
45328;SDS011;31063;48.356;10.896;2022-07-23T01:15:39;16.47;;;9.73;;
45328;SDS011;31063;48.356;10.896;2022-07-23T01:18:05;18.00;;;10.73;;
45328;SDS011;31063;48.356;10.896;2022-07-23T01:20:33;14.73;;;10.70;;
45328;SDS011;31063;48.356;10.896;2022-07-23T01:22:58;13.18;;;10.57;;
45328;SDS011;31063;48.356;10.896;2022-07-23T01:25:24;17.90;;;12.23;;
45328;SDS011;31063;48.356;10.896;2022-07-23T01:27:51;17.65;;;13.23;;
45328;SDS011;31063;48.356;10.896;2022-07-23T01:30:17;23.23;;;12.98;;
45328;SDS011;31063;48.356;10.896;2022-07-23T01:32:43;20.42;;;13.63;;
45328;SDS011;31063;48.356;10.896;2022-07-23T01:35:09;22.27;;;13.82;;
45328;SDS011;31063;48.356;10.896;2022-07-23T01:37:35;22.55;;;13.38;;
45328;SDS011;31063;48.356;10.896;2022-07-23T01:40:03;21.48;;;13.68;;
45328;SDS011;31063;48.356;10.896;2022-07-23T01:42:30;17.33;;;13.77;;
45328;SDS011;31063;48.356;10.896;2022-07-23T01:44:56;23.30;;;14.43;;
45328;SDS011;31063;48.356;10.896;2022-07-23T01:47:22;17.63;;;13.35;;
45328;SDS011;31063;48.356;10.896;2022-07-23T01:49:47;24.33;;;13.27;;
45328;SDS011;31063;48.356;10.896;2022-07-23T01:52:13;19.40;;;14.40;;
45328;SDS011;31063;48.356;10.896;2022-07-23T01:54:39;19.63;;;14.77;;
45328;SDS011;31063;48.356;10.896;2022-07-23T01:57:05;18.25;;;14.00;;
45328;SDS011;31063;48.356;10.896;2022-07-23T01:59:31;16.27;;;14.38;;
45328;SDS011;31063;48.356;10.896;2022-07-23T02:04:24;17.13;;;13.77;;
45328;SDS011;31063;48.356;10.896;2022-07-23T02:06:50;16.92;;;14.20;;
45328;SDS011;31063;48.356;10.896;2022-07-23T02:09:17;20.40;;;15.15;;
45328;SDS011;31063;48.356;10.896;2022-07-23T02:11:43;19.95;;;15.60;;
45328;SDS011;31063;48.356;10.896;2022-07-23T02:14:09;18.55;;;15.60;;
45328;SDS011;31063;48.356;10.896;2022-07-23T02:16:34;19.85;;;15.10;;
45328;SDS011;31063;48.356;10.896;2022-07-23T02:19:00;20.47;;;13.83;;
45328;SDS011;31063;48.356;10.896;2022-07-23T02:21:25;17.90;;;13.97;;
45328;SDS011;31063;48.356;10.896;2022-07-23T02:23:51;17.63;;;14.80;;
45328;SDS011;31063;48.356;10.896;2022-07-23T02:26:17;17.40;;;14.33;;
45328;SDS011;31063;48.356;10.896;2022-07-23T02:28:42;17.80;;;14.77;;
45328;SDS011;31063;48.356;10.896;2022-07-23T02:31:08;19.93;;;15.53;;
45328;SDS011;31063;48.356;10.896;2022-07-23T02:33:34;17.03;;;14.60;;
45328;SDS011;31063;48.356;10.896;2022-07-23T02:36:00;19.70;;;15.35;;
45328;SDS011;31063;48.356;10.896;2022-07-23T02:38:25;17.90;;;14.53;;
45328;SDS011;31063;48.356;10.896;2022-07-23T02:40:51;16.80;;;13.90;;
45328;SDS011;31063;48.356;10.896;2022-07-23T02:43:17;16.50;;;14.60;;
45328;SDS011;31063;48.356;10.896;2022-07-23T02:45:42;16.60;;;14.50;;
45328;SDS011;31063;48.356;10.896;2022-07-23T02:48:08;20.13;;;15.10;;
45328;SDS011;31063;48.356;10.896;2022-07-23T02:50:34;19.85;;;14.65;;
45328;SDS011;31063;48.356;10.896;2022-07-23T02:52:59;18.90;;;15.57;;
45328;SDS011;31063;48.356;10.896;2022-07-23T02:55:25;19.27;;;14.95;;
45328;SDS011;31063;48.356;10.896;2022-07-23T02:57:51;17.70;;;14.48;;
45328;SDS011;31063;48.356;10.896;2022-07-23T03:00:17;16.88;;;14.70;;
45328;SDS011;31063;48.356;10.896;2022-07-23T03:02:42;16.50;;;13.67;;
45328;SDS011;31063;48.356;10.896;2022-07-23T03:05:08;16.20;;;14.30;;
45328;SDS011;31063;48.356;10.896;2022-07-23T03:07:34;16.23;;;14.35;;
45328;SDS011;31063;48.356;10.896;2022-07-23T03:10:00;18.87;;;14.67;;
45328;SDS011;31063;48.356;10.896;2022-07-23T03:12:25;15.73;;;14.03;;
45328;SDS011;31063;48.356;10.896;2022-07-23T03:14:51;19.53;;;14.20;;
45328;SDS011;31063;48.356;10.896;2022-07-23T03:17:17;19.70;;;14.80;;
45328;SDS011;31063;48.356;10.896;2022-07-23T03:19:42;16.67;;;14.37;;
45328;SDS011;31063;48.356;10.896;2022-07-23T03:22:08;15.80;;;13.67;;
45328;SDS011;31063;48.356;10.896;2022-07-23T03:24:33;16.00;;;13.57;;
45328;SDS011;31063;48.356;10.896;2022-07-23T03:27:18;17.92;;;13.82;;
45328;SDS011;31063;48.356;10.896;2022-07-23T03:29:44;16.13;;;13.73;;
45328;SDS011;31063;48.356;10.896;2022-07-23T03:32:10;14.48;;;12.98;;
45328;SDS011;31063;48.356;10.896;2022-07-23T03:34:36;16.17;;;13.20;;
45328;SDS011;31063;48.356;10.896;2022-07-23T03:37:02;15.88;;;13.05;;
45328;SDS011;31063;48.356;10.896;2022-07-23T03:39:27;16.90;;;13.43;;
45328;SDS011;31063;48.356;10.896;2022-07-23T03:41:53;14.48;;;12.73;;
45328;SDS011;31063;48.356;10.896;2022-07-23T03:44:19;14.50;;;12.13;;
45328;SDS011;31063;48.356;10.896;2022-07-23T03:46:45;17.70;;;12.93;;
45328;SDS011;31063;48.356;10.896;2022-07-23T03:49:10;13.50;;;12.10;;
45328;SDS011;31063;48.356;10.896;2022-07-23T03:51:36;13.37;;;10.73;;
45328;SDS011;31063;48.356;10.896;2022-07-23T03:54:01;13.30;;;10.60;;
45328;SDS011;31063;48.356;10.896;2022-07-23T03:56:27;12.70;;;10.97;;
45328;SDS011;31063;48.356;10.896;2022-07-23T03:58:53;13.02;;;9.60;;
45328;SDS011;31063;48.356;10.896;2022-07-23T04:01:18;11.60;;;9.87;;
45328;SDS011;31063;48.356;10.896;2022-07-23T04:03:44;10.63;;;8.67;;
45328;SDS011;31063;48.356;10.896;2022-07-23T04:06:11;12.15;;;9.48;;
45328;SDS011;31063;48.356;10.896;2022-07-23T04:08:37;11.77;;;8.95;;
45328;SDS011;31063;48.356;10.896;2022-07-23T04:11:02;9.37;;;8.13;;
45328;SDS011;31063;48.356;10.896;2022-07-23T04:13:29;12.50;;;9.18;;
45328;SDS011;31063;48.356;10.896;2022-07-23T04:15:54;9.02;;;8.13;;
45328;SDS011;31063;48.356;10.896;2022-07-23T04:18:20;8.60;;;7.80;;
45328;SDS011;31063;48.356;10.896;2022-07-23T04:20:48;12.45;;;8.10;;
45328;SDS011;31063;48.356;10.896;2022-07-23T04:23:17;12.88;;;8.10;;
45328;SDS011;31063;48.356;10.896;2022-07-23T04:25:43;9.73;;;8.17;;
45328;SDS011;31063;48.356;10.896;2022-07-23T04:28:09;9.57;;;8.57;;
45328;SDS011;31063;48.356;10.896;2022-07-23T04:30:34;12.30;;;8.23;;
45328;SDS011;31063;48.356;10.896;2022-07-23T04:33:00;10.03;;;7.90;;
45328;SDS011;31063;48.356;10.896;2022-07-23T04:35:26;12.05;;;8.32;;
45328;SDS011;31063;48.356;10.896;2022-07-23T04:37:53;10.40;;;7.68;;
45328;SDS011;31063;48.356;10.896;2022-07-23T04:40:18;9.70;;;8.70;;
45328;SDS011;31063;48.356;10.896;2022-07-23T04:42:44;11.07;;;8.90;;
45328;SDS011;31063;48.356;10.896;2022-07-23T04:45:10;9.07;;;8.17;;
45328;SDS011;31063;48.356;10.896;2022-07-23T04:47:35;8.73;;;7.83;;
45328;SDS011;31063;48.356;10.896;2022-07-23T04:50:01;8.80;;;7.80;;
45328;SDS011;31063;48.356;10.896;2022-07-23T04:52:27;9.18;;;7.40;;
45328;SDS011;31063;48.356;10.896;2022-07-23T04:54:52;12.97;;;7.70;;
45328;SDS011;31063;48.356;10.896;2022-07-23T04:57:18;8.03;;;7.07;;
45328;SDS011;31063;48.356;10.896;2022-07-23T04:59:43;8.70;;;7.80;;
45328;SDS011;31063;48.356;10.896;2022-07-23T05:02:09;10.77;;;7.47;;
45328;SDS011;31063;48.356;10.896;2022-07-23T05:04:34;10.43;;;6.93;;
45328;SDS011;31063;48.356;10.896;2022-07-23T05:07:00;9.30;;;7.03;;
45328;SDS011;31063;48.356;10.896;2022-07-23T05:09:26;10.37;;;7.20;;
45328;SDS011;31063;48.356;10.896;2022-07-23T05:11:51;8.97;;;7.70;;
45328;SDS011;31063;48.356;10.896;2022-07-23T05:14:17;8.60;;;6.77;;
45328;SDS011;31063;48.356;10.896;2022-07-23T05:16:43;10.23;;;7.83;;
45328;SDS011;31063;48.356;10.896;2022-07-23T05:19:08;7.97;;;7.20;;
45328;SDS011;31063;48.356;10.896;2022-07-23T05:21:34;8.30;;;7.17;;
45328;SDS011;31063;48.356;10.896;2022-07-23T05:24:00;11.82;;;7.38;;
45328;SDS011;31063;48.356;10.896;2022-07-23T05:26:25;7.77;;;6.20;;
45328;SDS011;31063;48.356;10.896;2022-07-23T05:28:51;10.97;;;7.00;;
45328;SDS011;31063;48.356;10.896;2022-07-23T05:31:17;8.18;;;6.78;;
45328;SDS011;31063;48.356;10.896;2022-07-23T05:33:43;8.07;;;6.40;;
45328;SDS011;31063;48.356;10.896;2022-07-23T05:36:08;7.82;;;6.35;;
45328;SDS011;31063;48.356;10.896;2022-07-23T05:38:35;7.97;;;6.72;;
45328;SDS011;31063;48.356;10.896;2022-07-23T05:41:01;8.32;;;7.07;;
45328;SDS011;31063;48.356;10.896;2022-07-23T05:43:27;10.57;;;7.03;;
45328;SDS011;31063;48.356;10.896;2022-07-23T05:45:53;11.32;;;7.38;;
45328;SDS011;31063;48.356;10.896;2022-07-23T05:48:18;9.40;;;6.10;;
45328;SDS011;31063;48.356;10.896;2022-07-23T05:50:44;9.52;;;7.50;;
45328;SDS011;31063;48.356;10.896;2022-07-23T05:53:11;10.77;;;7.57;;
45328;SDS011;31063;48.356;10.896;2022-07-23T05:55:36;10.17;;;7.53;;
45328;SDS011;31063;48.356;10.896;2022-07-23T05:58:02;8.97;;;7.47;;
45328;SDS011;31063;48.356;10.896;2022-07-23T06:00:28;10.30;;;7.78;;
45328;SDS011;31063;48.356;10.896;2022-07-23T06:02:54;11.10;;;8.07;;
45328;SDS011;31063;48.356;10.896;2022-07-23T06:05:20;10.10;;;8.97;;
45328;SDS011;31063;48.356;10.896;2022-07-23T06:07:45;12.23;;;9.40;;
45328;SDS011;31063;48.356;10.896;2022-07-23T06:10:11;11.13;;;8.43;;
45328;SDS011;31063;48.356;10.896;2022-07-23T06:12:37;11.43;;;9.07;;
45328;SDS011;31063;48.356;10.896;2022-07-23T06:15:03;15.15;;;9.80;;
45328;SDS011;31063;48.356;10.896;2022-07-23T06:17:29;10.70;;;9.55;;
45328;SDS011;31063;48.356;10.896;2022-07-23T06:19:55;10.77;;;9.27;;
45328;SDS011;31063;48.356;10.896;2022-07-23T06:22:21;12.73;;;9.82;;
45328;SDS011;31063;48.356;10.896;2022-07-23T06:24:47;11.90;;;9.82;;
45328;SDS011;31063;48.356;10.896;2022-07-23T06:27:13;12.07;;;9.57;;
45328;SDS011;31063;48.356;10.896;2022-07-23T06:29:39;12.20;;;9.55;;
45328;SDS011;31063;48.356;10.896;2022-07-23T06:32:06;15.68;;;10.10;;
45328;SDS011;31063;48.356;10.896;2022-07-23T06:34:32;10.85;;;9.75;;
45328;SDS011;31063;48.356;10.896;2022-07-23T06:36:58;11.40;;;10.10;;
45328;SDS011;31063;48.356;10.896;2022-07-23T06:39:24;11.27;;;10.15;;
45328;SDS011;31063;48.356;10.896;2022-07-23T06:41:50;11.30;;;9.77;;
45328;SDS011;31063;48.356;10.896;2022-07-23T06:44:15;10.65;;;9.18;;
45328;SDS011;31063;48.356;10.896;2022-07-23T06:46:41;10.10;;;9.13;;
45328;SDS011;31063;48.356;10.896;2022-07-23T06:49:07;10.80;;;9.70;;
45328;SDS011;31063;48.356;10.896;2022-07-23T06:51:32;10.57;;;9.57;;
45328;SDS011;31063;48.356;10.896;2022-07-23T06:53:58;12.15;;;10.07;;
45328;SDS011;31063;48.356;10.896;2022-07-23T06:56:24;12.30;;;9.93;;
45328;SDS011;31063;48.356;10.896;2022-07-23T06:58:50;13.00;;;9.87;;
45328;SDS011;31063;48.356;10.896;2022-07-23T07:01:15;11.50;;;9.93;;
45328;SDS011;31063;48.356;10.896;2022-07-23T07:03:41;13.43;;;10.67;;
45328;SDS011;31063;48.356;10.896;2022-07-23T07:06:07;12.45;;;11.10;;
45328;SDS011;31063;48.356;10.896;2022-07-23T07:08:33;12.50;;;11.18;;
45328;SDS011;31063;48.356;10.896;2022-07-23T07:10:58;13.40;;;11.03;;
45328;SDS011;31063;48.356;10.896;2022-07-23T07:13:24;11.40;;;10.40;;
45328;SDS011;31063;48.356;10.896;2022-07-23T07:15:50;12.40;;;10.50;;
45328;SDS011;31063;48.356;10.896;2022-07-23T07:18:15;11.60;;;10.40;;
45328;SDS011;31063;48.356;10.896;2022-07-23T07:20:41;14.87;;;10.23;;
45328;SDS011;31063;48.356;10.896;2022-07-23T07:23:07;13.30;;;10.70;;
45328;SDS011;31063;48.356;10.896;2022-07-23T07:25:32;14.43;;;11.40;;
45328;SDS011;31063;48.356;10.896;2022-07-23T07:27:58;11.60;;;10.35;;
45328;SDS011;31063;48.356;10.896;2022-07-23T07:30:24;12.03;;;10.47;;
45328;SDS011;31063;48.356;10.896;2022-07-23T07:32:50;12.77;;;10.87;;
45328;SDS011;31063;48.356;10.896;2022-07-23T07:35:15;12.17;;;10.60;;
45328;SDS011;31063;48.356;10.896;2022-07-23T07:37:41;12.83;;;10.40;;
45328;SDS011;31063;48.356;10.896;2022-07-23T07:40:07;11.03;;;9.77;;
45328;SDS011;31063;48.356;10.896;2022-07-23T07:42:33;12.98;;;9.23;;
45328;SDS011;31063;48.356;10.896;2022-07-23T07:44:59;10.77;;;9.50;;
45328;SDS011;31063;48.356;10.896;2022-07-23T07:47:24;13.93;;;9.80;;
45328;SDS011;31063;48.356;10.896;2022-07-23T07:49:50;13.87;;;9.33;;
45328;SDS011;31063;48.356;10.896;2022-07-23T07:52:15;10.57;;;9.57;;
45328;SDS011;31063;48.356;10.896;2022-07-23T07:54:41;12.80;;;10.20;;
45328;SDS011;31063;48.356;10.896;2022-07-23T07:57:07;11.32;;;8.95;;
45328;SDS011;31063;48.356;10.896;2022-07-23T07:59:33;10.63;;;9.55;;
45328;SDS011;31063;48.356;10.896;2022-07-23T08:01:59;16.13;;;9.57;;
45328;SDS011;31063;48.356;10.896;2022-07-23T08:04:24;11.53;;;9.87;;
45328;SDS011;31063;48.356;10.896;2022-07-23T08:06:50;13.83;;;10.50;;
45328;SDS011;31063;48.356;10.896;2022-07-23T08:09:16;12.20;;;10.70;;
45328;SDS011;31063;48.356;10.896;2022-07-23T08:11:41;12.50;;;10.03;;
45328;SDS011;31063;48.356;10.896;2022-07-23T08:14:07;10.73;;;9.53;;
45328;SDS011;31063;48.356;10.896;2022-07-23T08:16:33;13.88;;;10.23;;
45328;SDS011;31063;48.356;10.896;2022-07-23T08:18:59;12.10;;;10.45;;
45328;SDS011;31063;48.356;10.896;2022-07-23T08:21:25;11.23;;;10.03;;
45328;SDS011;31063;48.356;10.896;2022-07-23T08:23:50;10.63;;;9.53;;
45328;SDS011;31063;48.356;10.896;2022-07-23T08:26:16;11.23;;;10.03;;
45328;SDS011;31063;48.356;10.896;2022-07-23T08:28:42;12.47;;;9.77;;
45328;SDS011;31063;48.356;10.896;2022-07-23T08:31:07;11.63;;;9.07;;
45328;SDS011;31063;48.356;10.896;2022-07-23T08:33:33;10.57;;;9.20;;
45328;SDS011;31063;48.356;10.896;2022-07-23T08:35:59;11.90;;;9.37;;
45328;SDS011;31063;48.356;10.896;2022-07-23T08:38:27;10.82;;;9.77;;
45328;SDS011;31063;48.356;10.896;2022-07-23T08:40:54;8.80;;;8.00;;
45328;SDS011;31063;48.356;10.896;2022-07-23T08:43:29;8.73;;;7.93;;
45328;SDS011;31063;48.356;10.896;2022-07-23T08:45:57;9.98;;;8.30;;
45328;SDS011;31063;48.356;10.896;2022-07-23T08:48:33;9.80;;;8.80;;
45328;SDS011;31063;48.356;10.896;2022-07-23T08:51:01;9.07;;;8.18;;
45328;SDS011;31063;48.356;10.896;2022-07-23T08:53:28;9.20;;;7.93;;
45328;SDS011;31063;48.356;10.896;2022-07-23T08:55:56;9.30;;;8.23;;
45328;SDS011;31063;48.356;10.896;2022-07-23T08:58:23;9.07;;;7.40;;
45328;SDS011;31063;48.356;10.896;2022-07-23T09:03:34;11.02;;;8.52;;
45328;SDS011;31063;48.356;10.896;2022-07-23T09:06:03;7.93;;;7.13;;
45328;SDS011;31063;48.356;10.896;2022-07-23T09:08:38;7.93;;;7.13;;
45328;SDS011;31063;48.356;10.896;2022-07-23T09:11:09;7.82;;;7.13;;
45328;SDS011;31063;48.356;10.896;2022-07-23T09:13:37;8.20;;;7.40;;
45328;SDS011;31063;48.356;10.896;2022-07-23T09:16:29;8.55;;;7.20;;
45328;SDS011;31063;48.356;10.896;2022-07-23T09:18:56;8.63;;;7.32;;
45328;SDS011;31063;48.356;10.896;2022-07-23T09:21:25;8.20;;;6.82;;
45328;SDS011;31063;48.356;10.896;2022-07-23T09:26:33;7.25;;;6.60;;
45328;SDS011;31063;48.356;10.896;2022-07-23T09:31:43;7.50;;;6.80;;
45328;SDS011;31063;48.356;10.896;2022-07-23T09:34:27;8.05;;;7.25;;
45328;SDS011;31063;48.356;10.896;2022-07-23T09:36:58;7.43;;;6.72;;
45328;SDS011;31063;48.356;10.896;2022-07-23T09:39:43;7.35;;;6.50;;
45328;SDS011;31063;48.356;10.896;2022-07-23T09:44:46;7.68;;;6.88;;
45328;SDS011;31063;48.356;10.896;2022-07-23T09:47:14;7.70;;;6.90;;
45328;SDS011;31063;48.356;10.896;2022-07-23T09:52:06;10.50;;;6.93;;
45328;SDS011;31063;48.356;10.896;2022-07-23T09:57:03;7.88;;;6.97;;
45328;SDS011;31063;48.356;10.896;2022-07-23T09:59:40;7.43;;;6.68;;
45328;SDS011;31063;48.356;10.896;2022-07-23T10:02:07;8.50;;;7.20;;
45328;SDS011;31063;48.356;10.896;2022-07-23T10:04:34;8.52;;;7.30;;
45328;SDS011;31063;48.356;10.896;2022-07-23T10:09:29;7.88;;;7.07;;
45328;SDS011;31063;48.356;10.896;2022-07-23T10:11:58;7.32;;;5.95;;
45328;SDS011;31063;48.356;10.896;2022-07-23T10:14:48;7.18;;;6.47;;
45328;SDS011;31063;48.356;10.896;2022-07-23T10:17:16;7.82;;;6.50;;
45328;SDS011;31063;48.356;10.896;2022-07-23T10:19:43;8.00;;;6.00;;
45328;SDS011;31063;48.356;10.896;2022-07-23T10:36:52;6.65;;;6.00;;
45328;SDS011;31063;48.356;10.896;2022-07-23T10:39:24;7.22;;;6.22;;
45328;SDS011;31063;48.356;10.896;2022-07-23T10:42:11;8.65;;;6.22;;
45328;SDS011;31063;48.356;10.896;2022-07-23T10:44:43;10.80;;;6.88;;
45328;SDS011;31063;48.356;10.896;2022-07-23T10:47:11;10.63;;;6.05;;
45328;SDS011;31063;48.356;10.896;2022-07-23T10:49:40;8.82;;;6.55;;
45328;SDS011;31063;48.356;10.896;2022-07-23T10:52:22;7.43;;;6.20;;
45328;SDS011;31063;48.356;10.896;2022-07-23T10:54:52;6.88;;;6.20;;
45328;SDS011;31063;48.356;10.896;2022-07-23T10:57:48;7.60;;;6.13;;
45328;SDS011;31063;48.356;10.896;2022-07-23T11:00:15;6.28;;;5.68;;
45328;SDS011;31063;48.356;10.896;2022-07-23T11:02:45;7.22;;;6.53;;
45328;SDS011;31063;48.356;10.896;2022-07-23T11:05:13;6.85;;;6.13;;
45328;SDS011;31063;48.356;10.896;2022-07-23T11:10:32;6.88;;;6.22;;
45328;SDS011;31063;48.356;10.896;2022-07-23T11:31:59;7.10;;;6.40;;
45328;SDS011;31063;48.356;10.896;2022-07-23T11:37:03;8.88;;;6.40;;
45328;SDS011;31063;48.356;10.896;2022-07-23T11:39:30;8.00;;;6.38;;
45328;SDS011;31063;48.356;10.896;2022-07-23T11:41:57;7.72;;;7.03;;
45328;SDS011;31063;48.356;10.896;2022-07-23T11:44:29;9.05;;;6.93;;
45328;SDS011;31063;48.356;10.896;2022-07-23T11:47:03;8.38;;;6.60;;
45328;SDS011;31063;48.356;10.896;2022-07-23T11:49:31;7.95;;;7.15;;
45328;SDS011;31063;48.356;10.896;2022-07-23T11:52:11;10.73;;;7.25;;
45328;SDS011;31063;48.356;10.896;2022-07-23T11:57:18;7.85;;;7.05;;
45328;SDS011;31063;48.356;10.896;2022-07-23T11:59:49;8.00;;;7.20;;
45328;SDS011;31063;48.356;10.896;2022-07-23T12:02:19;8.48;;;7.13;;
45328;SDS011;31063;48.356;10.896;2022-07-23T12:04:46;9.98;;;7.75;;
45328;SDS011;31063;48.356;10.896;2022-07-23T12:12:54;9.43;;;7.25;;
45328;SDS011;31063;48.356;10.896;2022-07-23T12:15:29;9.40;;;7.22;;
45328;SDS011;31063;48.356;10.896;2022-07-23T12:17:58;9.50;;;7.78;;
45328;SDS011;31063;48.356;10.896;2022-07-23T12:20:26;8.52;;;7.63;;
45328;SDS011;31063;48.356;10.896;2022-07-23T12:22:59;8.65;;;7.75;;
45328;SDS011;31063;48.356;10.896;2022-07-23T12:25:31;8.77;;;7.80;;
45328;SDS011;31063;48.356;10.896;2022-07-23T12:30:32;11.13;;;7.20;;
45328;SDS011;31063;48.356;10.896;2022-07-23T12:33:09;9.60;;;7.68;;
45328;SDS011;31063;48.356;10.896;2022-07-23T12:38:04;10.15;;;7.32;;
45328;SDS011;31063;48.356;10.896;2022-07-23T12:40:32;8.98;;;7.60;;
45328;SDS011;31063;48.356;10.896;2022-07-23T12:42:58;9.77;;;7.40;;
45328;SDS011;31063;48.356;10.896;2022-07-23T12:45:27;8.85;;;7.28;;
45328;SDS011;31063;48.356;10.896;2022-07-23T12:48:06;8.30;;;7.50;;
45328;SDS011;31063;48.356;10.896;2022-07-23T12:50:39;9.10;;;7.30;;
45328;SDS011;31063;48.356;10.896;2022-07-23T12:53:09;10.55;;;8.10;;
45328;SDS011;31063;48.356;10.896;2022-07-23T12:56:11;9.80;;;7.97;;
45328;SDS011;31063;48.356;10.896;2022-07-23T13:06:35;7.40;;;6.72;;
45328;SDS011;31063;48.356;10.896;2022-07-23T13:09:09;9.48;;;7.75;;
45328;SDS011;31063;48.356;10.896;2022-07-23T13:11:37;8.02;;;7.22;;
45328;SDS011;31063;48.356;10.896;2022-07-23T13:14:03;9.20;;;7.95;;
45328;SDS011;31063;48.356;10.896;2022-07-23T13:16:30;8.77;;;7.75;;
45328;SDS011;31063;48.356;10.896;2022-07-23T13:18:56;9.40;;;7.50;;
45328;SDS011;31063;48.356;10.896;2022-07-23T13:21:23;9.07;;;7.90;;
45328;SDS011;31063;48.356;10.896;2022-07-23T13:23:48;11.35;;;7.90;;
45328;SDS011;31063;48.356;10.896;2022-07-23T13:26:14;9.93;;;8.48;;
45328;SDS011;31063;48.356;10.896;2022-07-23T13:28:40;11.30;;;8.20;;
45328;SDS011;31063;48.356;10.896;2022-07-23T13:31:06;9.23;;;7.80;;
45328;SDS011;31063;48.356;10.896;2022-07-23T13:33:32;11.95;;;7.30;;
45328;SDS011;31063;48.356;10.896;2022-07-23T13:35:58;8.75;;;7.65;;
45328;SDS011;31063;48.356;10.896;2022-07-23T13:38:24;8.48;;;7.57;;
45328;SDS011;31063;48.356;10.896;2022-07-23T13:40:50;9.85;;;8.02;;
45328;SDS011;31063;48.356;10.896;2022-07-23T13:43:17;8.93;;;7.97;;
45328;SDS011;31063;48.356;10.896;2022-07-23T13:45:45;8.43;;;7.63;;
45328;SDS011;31063;48.356;10.896;2022-07-23T13:48:11;10.65;;;8.15;;
45328;SDS011;31063;48.356;10.896;2022-07-23T13:50:38;9.00;;;8.10;;
45328;SDS011;31063;48.356;10.896;2022-07-23T13:53:05;9.35;;;7.40;;
45328;SDS011;31063;48.356;10.896;2022-07-23T13:55:52;10.63;;;7.97;;
45328;SDS011;31063;48.356;10.896;2022-07-23T13:58:18;9.38;;;8.30;;
45328;SDS011;31063;48.356;10.896;2022-07-23T14:00:45;9.25;;;8.35;;
45328;SDS011;31063;48.356;10.896;2022-07-23T14:03:13;8.88;;;7.97;;
45328;SDS011;31063;48.356;10.896;2022-07-23T14:05:41;10.85;;;8.85;;
45328;SDS011;31063;48.356;10.896;2022-07-23T14:08:07;10.25;;;8.32;;
45328;SDS011;31063;48.356;10.896;2022-07-23T14:10:33;7.80;;;7.10;;
45328;SDS011;31063;48.356;10.896;2022-07-23T14:12:59;8.82;;;7.70;;
45328;SDS011;31063;48.356;10.896;2022-07-23T14:15:26;9.68;;;7.55;;
45328;SDS011;31063;48.356;10.896;2022-07-23T14:17:53;8.88;;;7.53;;
45328;SDS011;31063;48.356;10.896;2022-07-23T14:20:19;9.38;;;7.82;;
45328;SDS011;31063;48.356;10.896;2022-07-23T14:22:45;8.23;;;7.43;;
45328;SDS011;31063;48.356;10.896;2022-07-23T14:25:11;8.00;;;7.30;;
45328;SDS011;31063;48.356;10.896;2022-07-23T14:27:37;8.43;;;7.47;;
45328;SDS011;31063;48.356;10.896;2022-07-23T14:32:30;11.02;;;7.35;;
45328;SDS011;31063;48.356;10.896;2022-07-23T14:34:55;8.55;;;7.50;;
45328;SDS011;31063;48.356;10.896;2022-07-23T14:37:21;8.05;;;7.28;;
45328;SDS011;31063;48.356;10.896;2022-07-23T14:39:47;7.40;;;6.70;;
45328;SDS011;31063;48.356;10.896;2022-07-23T14:44:38;6.95;;;6.25;;
45328;SDS011;31063;48.356;10.896;2022-07-23T14:47:04;7.35;;;6.65;;
45328;SDS011;31063;48.356;10.896;2022-07-23T14:51:57;6.32;;;5.72;;
45328;SDS011;31063;48.356;10.896;2022-07-23T14:54:23;7.28;;;6.38;;
45328;SDS011;31063;48.356;10.896;2022-07-23T14:56:51;6.55;;;5.88;;
45328;SDS011;31063;48.356;10.896;2022-07-23T14:59:17;6.47;;;5.88;;
45328;SDS011;31063;48.356;10.896;2022-07-23T15:01:43;6.93;;;6.15;;
45328;SDS011;31063;48.356;10.896;2022-07-23T15:04:09;7.20;;;6.55;;
45328;SDS011;31063;48.356;10.896;2022-07-23T15:06:34;6.72;;;6.03;;
45328;SDS011;31063;48.356;10.896;2022-07-23T15:09:00;6.82;;;6.05;;
45328;SDS011;31063;48.356;10.896;2022-07-23T15:11:27;10.82;;;6.38;;
45328;SDS011;31063;48.356;10.896;2022-07-23T15:13:56;7.25;;;6.43;;
45328;SDS011;31063;48.356;10.896;2022-07-23T15:16:21;7.03;;;6.30;;
45328;SDS011;31063;48.356;10.896;2022-07-23T15:18:47;9.60;;;6.50;;
45328;SDS011;31063;48.356;10.896;2022-07-23T15:21:13;7.22;;;6.53;;
45328;SDS011;31063;48.356;10.896;2022-07-23T15:23:38;7.43;;;6.07;;
45328;SDS011;31063;48.356;10.896;2022-07-23T15:26:05;7.43;;;6.15;;
45328;SDS011;31063;48.356;10.896;2022-07-23T15:28:32;7.53;;;6.70;;
45328;SDS011;31063;48.356;10.896;2022-07-23T15:30:58;7.68;;;6.85;;
45328;SDS011;31063;48.356;10.896;2022-07-23T15:33:24;7.40;;;6.53;;
45328;SDS011;31063;48.356;10.896;2022-07-23T15:35:49;8.15;;;6.90;;
45328;SDS011;31063;48.356;10.896;2022-07-23T15:38:17;9.98;;;7.07;;
45328;SDS011;31063;48.356;10.896;2022-07-23T15:40:43;7.88;;;7.07;;
45328;SDS011;31063;48.356;10.896;2022-07-23T15:43:08;8.68;;;7.00;;
45328;SDS011;31063;48.356;10.896;2022-07-23T15:45:34;7.30;;;6.60;;
45328;SDS011;31063;48.356;10.896;2022-07-23T15:48:00;7.90;;;7.10;;
45328;SDS011;31063;48.356;10.896;2022-07-23T15:50:25;9.05;;;7.25;;